Time;durP1;ratioP1;P1;durP2;ratioP2;P2;SDS_P1;SDS_P2;PMS_P1;PMS_P2;Temp;Humidity;BMP_temperature;BMP_pressure;BME280_temperature;BME280_humidity;BME280_pressure;Samples;Min_cycle;Max_cycle;Signal;HPM_P1;HPM_P2
2022/12/03 00:00:31;;;;;;;11.13;10.03;;;;;;;7.37;66.75;95595.53;5050396;28;20260;-67
2022/12/03 00:02:57;;;;;;;16.13;10.40;;;;;;;7.39;66.71;95606.72;5038814;28;20236;-67
2022/12/03 00:05:22;;;;;;;9.87;8.87;;;;;;;7.28;66.83;95599.69;5036009;28;20226;-66
2022/12/03 00:07:47;;;;;;;10.90;9.60;;;;;;;7.39;66.65;95607.56;5045202;28;20276;-67
2022/12/03 00:10:13;;;;;;;10.80;8.70;;;;;;;7.44;66.52;95605.41;5042878;28;20214;-67
2022/12/03 00:12:38;;;;;;;10.70;9.60;;;;;;;7.49;65.86;95615.53;5041939;28;20224;-68
2022/12/03 00:15:06;;;;;;;12.60;10.37;;;;;;;7.46;66.54;95614.00;5039541;28;20235;-67
2022/12/03 00:17:31;;;;;;;10.07;9.07;;;;;;;7.42;66.34;95623.00;5041338;28;20309;-67
2022/12/03 00:19:57;;;;;;;10.80;9.50;;;;;;;6.71;68.82;95637.09;5042841;28;20284;-67
2022/12/03 00:22:23;;;;;;;10.57;9.37;;;;;;;6.94;68.41;95631.00;5043388;28;20233;-67
2022/12/03 00:24:48;;;;;;;12.17;9.47;;;;;;;7.03;68.30;95626.84;5026072;28;20222;-68
2022/12/03 00:27:14;;;;;;;9.73;8.73;;;;;;;7.11;67.73;95636.75;5036611;28;20258;-67
2022/12/03 00:29:39;;;;;;;11.00;8.57;;;;;;;7.21;67.41;95632.50;5023770;28;20232;-68
2022/12/03 00:32:04;;;;;;;9.53;8.37;;;;;;;7.23;67.08;95628.00;5025886;28;20272;-67
2022/12/03 00:34:30;;;;;;;9.43;8.43;;;;;;;7.26;67.15;95627.75;5022408;28;20277;-67
2022/12/03 00:36:55;;;;;;;10.93;9.60;;;;;;;7.13;67.27;95632.25;5020999;28;20228;-69
2022/12/03 00:39:21;;;;;;;11.07;8.73;;;;;;;7.21;66.93;95629.88;5022182;28;20435;-68
2022/12/03 00:41:46;;;;;;;10.53;8.97;;;;;;;7.29;66.96;95638.81;5018877;28;20231;-68
2022/12/03 00:44:12;;;;;;;11.63;10.40;;;;;;;7.28;66.80;95641.56;5018794;28;20224;-67
2022/12/03 00:46:37;;;;;;;13.23;11.83;;;;;;;7.32;66.41;95639.53;5035335;28;20255;-68
2022/12/03 00:49:03;;;;;;;13.50;12.10;;;;;;;7.17;66.46;95644.16;5041212;28;20292;-68
2022/12/03 00:51:28;;;;;;;13.97;12.07;;;;;;;7.17;66.48;95639.75;5039885;28;20403;-68
2022/12/03 00:53:53;;;;;;;12.57;11.23;;;;;;;7.12;66.43;95641.88;5038458;28;20229;-68
2022/12/03 00:56:19;;;;;;;12.63;11.33;;;;;;;7.17;66.80;95652.00;5036839;28;26003;-68
2022/12/03 00:58:44;;;;;;;11.47;10.00;;;;;;;7.13;66.33;95651.38;5032827;28;20194;-68
2022/12/03 01:01:10;;;;;;;11.47;10.17;;;;;;;7.24;66.42;95661.88;5018645;28;20239;-67
2022/12/03 01:03:35;;;;;;;11.30;9.07;;;;;;;7.16;66.61;95663.38;5020157;28;20589;-68
2022/12/03 01:06:01;;;;;;;10.20;9.07;;;;;;;7.16;66.81;95660.78;5016402;28;20566;-68
2022/12/03 01:08:26;;;;;;;10.97;9.13;;;;;;;7.15;66.72;95656.50;5025697;28;20230;-67
2022/12/03 01:10:52;;;;;;;10.57;9.57;;;;;;;7.20;66.64;95662.22;5037740;28;20189;-68
2022/12/03 01:13:17;;;;;;;9.93;8.93;;;;;;;6.95;67.29;95661.44;5035508;28;20234;-67
2022/12/03 01:15:42;;;;;;;10.77;9.67;;;;;;;7.12;66.87;95661.97;5040216;28;20230;-68
2022/12/03 01:18:08;;;;;;;10.87;9.17;;;;;;;7.18;66.82;95664.13;5037676;28;20225;-67
2022/12/03 01:20:35;;;;;;;10.10;8.87;;;;;;;7.16;66.36;95664.22;5037216;28;20230;-67
2022/12/03 01:23:01;;;;;;;10.37;7.83;;;;;;;7.21;66.35;95656.88;5036334;28;20185;-66
2022/12/03 01:25:26;;;;;;;9.83;8.83;;;;;;;7.21;66.46;95671.72;5036327;28;20672;-67
2022/12/03 01:27:52;;;;;;;8.73;7.80;;;;;;;7.24;66.56;95671.50;5044333;28;20246;-68
2022/12/03 01:30:17;;;;;;;12.20;9.70;;;;;;;7.28;66.39;95670.31;5043040;28;20231;-68
2022/12/03 01:32:42;;;;;;;10.00;8.67;;;;;;;7.20;66.33;95673.50;5041720;28;20233;-67
2022/12/03 01:35:08;;;;;;;9.93;8.80;;;;;;;7.25;66.28;95673.19;5037683;28;20197;-67
2022/12/03 01:37:33;;;;;;;8.07;7.07;;;;;;;7.14;66.47;95667.94;5044779;28;20192;-68
2022/12/03 01:39:59;;;;;;;8.47;7.37;;;;;;;7.12;66.27;95668.03;5041072;28;20412;-68
2022/12/03 01:42:27;;;;;;;8.60;7.40;;;;;;;7.14;66.53;95673.16;5046162;28;20229;-67
2022/12/03 01:44:56;;;;;;;7.77;6.97;;;;;;;7.10;66.47;95675.16;5029324;28;20719;-67
2022/12/03 01:47:30;;;;;;;7.30;6.60;;;;;;;7.16;66.41;95663.38;5044825;28;20286;-67
2022/12/03 01:50:01;;;;;;;8.23;7.40;;;;;;;7.13;66.32;95669.69;5058702;28;20203;-67
2022/12/03 01:52:31;;;;;;;7.63;6.83;;;;;;;7.16;66.12;95671.25;5038762;28;20218;-67
2022/12/03 01:54:59;;;;;;;8.37;7.53;;;;;;;7.16;66.31;95668.63;5039359;28;20226;-67
2022/12/03 01:57:33;;;;;;;8.77;7.97;;;;;;;7.19;65.87;95668.38;5047934;28;20225;-67
2022/12/03 01:59:59;;;;;;;8.90;8.00;;;;;;;7.22;66.02;95676.03;5040997;28;20249;-67
2022/12/03 02:02:28;;;;;;;8.87;8.00;;;;;;;7.16;66.25;95666.00;5043774;28;20240;-66
2022/12/03 02:04:54;;;;;;;8.53;7.63;;;;;;;7.18;65.93;95662.31;5049061;28;20193;-67
2022/12/03 02:07:29;;;;;;;8.17;7.33;;;;;;;7.18;65.80;95659.72;5045447;28;20241;-68
2022/12/03 02:09:56;;;;;;;8.13;7.30;;;;;;;7.16;66.03;95664.22;5046669;28;20227;-68
2022/12/03 02:12:28;;;;;;;8.93;8.03;;;;;;;7.16;66.04;95666.00;5042479;28;20226;-67
2022/12/03 02:14:54;;;;;;;8.33;7.43;;;;;;;7.12;65.92;95667.19;5047344;28;20244;-67
2022/12/03 02:17:19;;;;;;;7.40;6.60;;;;;;;7.10;66.13;95659.47;5046696;28;20190;-67
2022/12/03 02:19:45;;;;;;;7.63;6.93;;;;;;;7.06;66.04;95658.88;5046507;28;20231;-68
2022/12/03 02:22:33;;;;;;;7.97;7.17;;;;;;;7.15;66.17;95669.59;5048142;28;20301;-68
2022/12/03 02:25:08;;;;;;;7.73;6.70;;;;;;;7.02;66.40;95667.03;5047581;28;20226;-69
2022/12/03 02:27:33;;;;;;;9.03;7.50;;;;;;;6.91;66.56;95667.84;5038988;28;20217;-68
2022/12/03 02:29:59;;;;;;;10.00;8.60;;;;;;;7.03;66.41;95658.25;5046841;28;20245;-68
2022/12/03 02:32:24;;;;;;;9.43;8.27;;;;;;;7.07;66.26;95657.06;5044192;28;20226;-69
2022/12/03 02:34:50;;;;;;;8.60;7.70;;;;;;;7.07;66.41;95665.75;5041909;28;20192;-69
2022/12/03 02:37:22;;;;;;;8.97;8.07;;;;;;;7.00;66.82;95659.31;5039962;28;20229;-69
2022/12/03 02:39:52;;;;;;;10.23;8.03;;;;;;;7.13;66.80;95659.22;5040773;28;20249;-69
2022/12/03 02:42:33;;;;;;;8.57;7.77;;;;;;;7.11;66.57;95657.66;5035137;28;20233;-68
2022/12/03 02:45:07;;;;;;;8.60;7.70;;;;;;;7.10;66.53;95653.41;5042978;28;20240;-68
2022/12/03 02:47:41;;;;;;;8.47;7.57;;;;;;;7.11;66.67;95666.38;5041643;28;20237;-68
2022/12/03 02:50:09;;;;;;;8.83;8.00;;;;;;;7.05;66.60;95667.63;5025568;28;20243;-68
2022/12/03 02:52:35;;;;;;;8.43;7.57;;;;;;;7.11;66.63;95661.16;5021713;28;20178;-69
2022/12/03 02:55:04;;;;;;;9.57;7.67;;;;;;;7.09;66.42;95656.97;5028091;28;20237;-68
2022/12/03 02:57:30;;;;;;;9.80;8.03;;;;;;;7.14;66.51;95660.09;5013033;28;20219;-69
2022/12/03 02:59:55;;;;;;;12.63;8.10;;;;;;;7.12;66.36;95649.72;5035224;28;20248;-69
2022/12/03 03:02:21;;;;;;;9.23;7.87;;;;;;;7.04;66.61;95652.91;5039332;28;20252;-68
2022/12/03 03:04:47;;;;;;;8.60;7.70;;;;;;;7.10;66.57;95663.84;5045500;28;20189;-68
2022/12/03 03:07:13;;;;;;;8.83;7.93;;;;;;;7.07;66.59;95665.75;5038844;28;20229;-68
2022/12/03 03:09:39;;;;;;;10.97;9.97;;;;;;;6.98;67.24;95666.44;5047472;28;20229;-68
2022/12/03 03:12:05;;;;;;;12.00;10.10;;;;;;;7.04;66.95;95660.75;5040435;28;20251;-68
2022/12/03 03:14:32;;;;;;;10.27;9.17;;;;;;;7.08;66.89;95661.34;5040651;28;20222;-68
2022/12/03 03:16:57;;;;;;;10.53;9.43;;;;;;;7.04;66.71;95654.69;5047980;28;20188;-69
2022/12/03 03:19:24;;;;;;;12.33;11.03;;;;;;;7.10;67.14;95658.63;5045656;28;20221;-68
2022/12/03 03:21:51;;;;;;;11.70;10.13;;;;;;;7.05;67.01;95662.41;5043954;28;20252;-68
2022/12/03 03:24:16;;;;;;;11.97;10.17;;;;;;;6.96;67.10;95652.66;5050162;28;20225;-68
2022/12/03 03:26:42;;;;;;;11.17;9.90;;;;;;;7.10;66.73;95661.25;5046949;28;20335;-68
2022/12/03 03:29:07;;;;;;;10.50;9.37;;;;;;;7.12;66.90;95654.13;5043937;28;20195;-68
2022/12/03 03:31:33;;;;;;;9.13;8.23;;;;;;;7.11;66.68;95647.22;5042904;28;20316;-69
2022/12/03 03:33:58;;;;;;;10.77;8.67;;;;;;;7.06;66.74;95643.16;5046150;28;20225;-69
2022/12/03 03:36:25;;;;;;;9.47;8.47;;;;;;;7.09;66.59;95649.13;5035143;28;20229;-68
2022/12/03 03:38:51;;;;;;;9.90;8.20;;;;;;;7.09;66.66;95657.81;5044485;28;20233;-69
2022/12/03 03:41:17;;;;;;;9.50;8.43;;;;;;;7.13;66.48;95653.16;5043886;28;20279;-68
2022/12/03 03:43:44;;;;;;;9.40;8.40;;;;;;;7.15;66.67;95659.13;5046096;28;20177;-69
2022/12/03 03:46:11;;;;;;;11.27;9.20;;;;;;;7.10;66.60;95658.63;5054870;28;20226;-68
2022/12/03 03:48:37;;;;;;;10.80;9.50;;;;;;;7.14;66.55;95673.16;5044331;28;20224;-68
2022/12/03 03:51:08;;;;;;;9.60;8.60;;;;;;;7.09;66.67;95665.66;5045072;28;20244;-68
2022/12/03 03:53:35;;;;;;;12.93;9.50;;;;;;;7.13;66.60;95671.47;5045211;28;20226;-69
2022/12/03 03:56:00;;;;;;;9.77;8.70;;;;;;;6.89;67.13;95671.50;5043164;28;20185;-66
2022/12/03 03:58:26;;;;;;;8.83;7.93;;;;;;;6.91;67.03;95674.84;5042898;28;20201;-69
2022/12/03 04:00:51;;;;;;;9.83;8.93;;;;;;;7.00;66.73;95663.69;5040012;28;20253;-68
2022/12/03 04:03:17;;;;;;;9.30;8.40;;;;;;;6.91;66.85;95667.84;5039966;28;20263;-69
2022/12/03 04:05:42;;;;;;;9.43;8.53;;;;;;;6.89;67.43;95672.34;5042078;28;20247;-69
2022/12/03 04:08:08;;;;;;;8.30;7.47;;;;;;;6.88;66.99;95673.28;5041368;28;20269;-68
2022/12/03 04:13:17;;;;;;;9.07;8.13;;;;;;;6.92;67.15;95682.56;5039794;28;20236;-69
2022/12/03 04:15:42;;;;;;;8.90;7.90;;;;;;;6.91;66.96;95678.28;5040993;28;20221;-70
2022/12/03 04:22:38;;;;;;;9.27;8.17;;;;;;;6.98;66.61;95687.38;5037547;28;20595;-69
2022/12/03 04:23:37;;;;;;;9.10;7.83;;;;;;;6.89;66.81;95693.25;5040812;28;20308;-69
2022/12/03 04:28:49;;;;;;;12.23;11.10;;;;;;;6.89;66.99;95684.56;5047760;28;20196;-68
2022/12/03 04:36:42;;;;;;;11.60;10.40;;;;;;;6.91;67.02;95699.22;5040104;28;20224;-68
2022/12/03 04:39:07;;;;;;;9.90;9.00;;;;;;;6.96;66.94;95704.94;5053292;28;20247;-67
2022/12/03 04:41:33;;;;;;;9.27;7.57;;;;;;;6.89;66.46;95702.88;5043007;28;20232;-68
2022/12/03 04:46:42;;;;;;;9.17;7.30;;;;;;;6.75;67.29;95704.72;5038648;28;20223;-68
2022/12/03 04:49:08;;;;;;;8.70;7.80;;;;;;;6.73;67.43;95705.78;5042229;28;20324;-68
2022/12/03 04:51:33;;;;;;;9.20;8.30;;;;;;;6.79;67.26;95707.94;5037673;28;20226;-68
2022/12/03 04:53:58;;;;;;;8.20;7.40;;;;;;;6.91;66.87;95703.59;5045150;28;20217;-67
2022/12/03 04:56:24;;;;;;;8.70;7.50;;;;;;;6.87;67.18;95697.78;5043698;28;20229;-68
2022/12/03 04:58:49;;;;;;;7.73;6.73;;;;;;;6.90;67.04;95705.41;5044268;28;21304;-68
2022/12/03 05:01:14;;;;;;;7.77;7.00;;;;;;;6.91;67.04;95706.22;5041009;28;20240;-67
2022/12/03 05:03:40;;;;;;;7.70;7.00;;;;;;;6.95;67.25;95695.44;5044152;28;20229;-68
2022/12/03 05:06:06;;;;;;;7.67;6.83;;;;;;;6.99;66.79;95698.66;5028648;28;20218;-67
2022/12/03 05:08:31;;;;;;;6.87;6.23;;;;;;;7.01;66.71;95696.75;5037263;28;20218;-67
2022/12/03 05:10:56;;;;;;;7.17;6.50;;;;;;;7.02;66.54;95696.63;5026173;28;20181;-67
2022/12/03 05:13:22;;;;;;;6.70;6.10;;;;;;;6.99;66.56;95690.81;5023592;28;20225;-67
2022/12/03 05:15:47;;;;;;;7.70;6.53;;;;;;;6.93;67.02;95697.31;5021053;28;20219;-67
2022/12/03 05:18:13;;;;;;;7.70;6.90;;;;;;;6.98;66.75;95702.22;5029922;28;20321;-67
2022/12/03 05:20:41;;;;;;;7.27;6.50;;;;;;;6.91;67.27;95701.81;5025251;28;20227;-66
2022/12/03 05:23:11;;;;;;;7.20;6.53;;;;;;;6.95;66.96;95710.25;5033610;28;20305;-67
2022/12/03 05:25:37;;;;;;;7.67;6.90;;;;;;;6.89;67.14;95702.88;5018724;28;20214;-67
2022/12/03 05:28:03;;;;;;;6.83;6.13;;;;;;;6.91;66.99;95709.66;5023505;28;20262;-67
2022/12/03 05:30:28;;;;;;;7.20;6.50;;;;;;;6.77;67.95;95710.69;5024947;28;20218;-66
2022/12/03 05:32:54;;;;;;;7.77;7.03;;;;;;;6.86;67.62;95703.94;5041963;28;20279;-66
2022/12/03 05:35:19;;;;;;;8.03;7.23;;;;;;;6.88;67.26;95712.50;5023462;28;20337;-67
2022/12/03 05:37:45;;;;;;;6.83;6.13;;;;;;;6.91;67.20;95716.69;5024270;28;20186;-67
2022/12/03 05:40:11;;;;;;;7.70;6.90;;;;;;;6.90;67.24;95713.25;5017656;28;20318;-68
2022/12/03 05:45:28;;;;;;;7.17;6.47;;;;;;;7.00;67.06;95721.22;5018164;28;20264;-68
2022/12/03 05:47:55;;;;;;;9.30;7.13;;;;;;;6.96;66.74;95720.63;5035147;28;20218;-67
2022/12/03 05:50:23;;;;;;;9.67;6.63;;;;;;;6.94;67.08;95719.91;5024683;28;20236;-68
2022/12/03 05:52:49;;;;;;;7.80;6.77;;;;;;;7.00;66.78;95726.44;5032956;28;20182;-68
2022/12/03 05:55:15;;;;;;;8.53;6.27;;;;;;;6.99;67.00;95732.63;5020307;28;20295;-68
2022/12/03 05:57:41;;;;;;;6.60;5.90;;;;;;;6.90;67.06;95720.25;5022482;28;20313;-68
2022/12/03 06:00:28;;;;;;;7.27;6.30;;;;;;;6.99;66.48;95724.78;5021087;28;20228;-68
2022/12/03 06:02:54;;;;;;;6.93;6.00;;;;;;;6.98;66.52;95739.66;5020203;28;20328;-69
2022/12/03 06:05:21;;;;;;;7.17;5.97;;;;;;;6.99;66.30;95740.47;5025594;28;20190;-69
2022/12/03 06:07:47;;;;;;;6.97;6.27;;;;;;;7.06;66.26;95736.47;5024143;28;20186;-69
2022/12/03 06:10:16;;;;;;;7.00;6.30;;;;;;;7.04;66.01;95744.44;5022384;28;20486;-69
2022/12/03 06:12:42;;;;;;;7.43;6.63;;;;;;;7.05;65.84;95751.31;5031908;28;20317;-68
2022/12/03 06:15:09;;;;;;;8.30;6.50;;;;;;;7.06;66.06;95752.19;5019727;28;20238;-69
2022/12/03 06:17:34;;;;;;;6.63;5.47;;;;;;;7.09;66.28;95749.34;5026098;28;20245;-69
2022/12/03 06:19:59;;;;;;;6.90;6.17;;;;;;;7.05;65.95;95748.69;5020397;28;20202;-69
2022/12/03 06:22:25;;;;;;;6.53;5.53;;;;;;;6.99;65.96;95753.56;5037035;28;20228;-69
2022/12/03 06:24:50;;;;;;;6.50;5.43;;;;;;;7.09;65.81;95754.56;5030704;28;20309;-69
2022/12/03 06:27:16;;;;;;;6.77;5.70;;;;;;;7.12;65.91;95750.88;5037222;28;20244;-69
2022/12/03 06:29:41;;;;;;;6.07;5.40;;;;;;;7.18;65.61;95755.66;5038729;28;20223;-68
2022/12/03 06:32:07;;;;;;;5.83;4.93;;;;;;;7.16;65.48;95762.78;5016893;28;20208;-67
2022/12/03 06:34:32;;;;;;;6.20;5.53;;;;;;;7.23;65.13;95759.59;5047998;28;20200;-71
2022/12/03 06:36:58;;;;;;;7.97;5.50;;;;;;;7.16;65.14;95757.53;5041293;28;20214;-71
2022/12/03 06:39:23;;;;;;;6.00;5.50;;;;;;;7.16;65.18;95758.38;5053177;28;20240;-71
2022/12/03 06:41:49;;;;;;;9.23;5.93;;;;;;;7.17;65.58;95756.63;5041385;28;20308;-69
2022/12/03 06:44:14;;;;;;;5.40;4.90;;;;;;;7.10;65.48;95755.38;5038385;28;20194;-69
2022/12/03 06:46:40;;;;;;;5.60;4.73;;;;;;;7.12;65.22;95749.09;5041280;28;20186;-70
2022/12/03 06:49:08;;;;;;;5.90;5.40;;;;;;;7.15;65.07;95755.88;5042538;28;20223;-70
2022/12/03 06:51:34;;;;;;;7.43;6.10;;;;;;;7.16;65.14;95750.53;5044791;28;20229;-70
2022/12/03 06:54:00;;;;;;;7.47;5.53;;;;;;;7.03;65.57;95757.59;5042633;28;20226;-70
2022/12/03 06:56:25;;;;;;;6.13;5.53;;;;;;;7.07;65.16;95754.66;5040548;28;20229;-70
2022/12/03 06:58:51;;;;;;;6.40;5.70;;;;;;;7.09;65.39;95748.50;5045069;28;20197;-70
2022/12/03 07:01:16;;;;;;;7.43;5.50;;;;;;;7.16;65.23;95747.09;5039515;28;20265;-70
2022/12/03 07:03:42;;;;;;;6.57;5.87;;;;;;;7.09;65.07;95751.13;5040236;28;20291;-70
2022/12/03 07:06:07;;;;;;;9.67;5.90;;;;;;;7.17;65.13;95756.63;5039066;28;20226;-69
2022/12/03 07:08:33;;;;;;;7.40;5.40;;;;;;;7.21;65.13;95761.50;5019024;28;20328;-70
2022/12/03 07:10:58;;;;;;;6.03;5.43;;;;;;;7.23;64.89;95766.63;5026747;28;20186;-70
2022/12/03 07:13:23;;;;;;;7.07;5.60;;;;;;;7.26;64.85;95764.59;5048014;28;20229;-70
2022/12/03 07:15:49;;;;;;;6.60;6.00;;;;;;;7.23;64.88;95774.47;5029126;28;20218;-71
2022/12/03 07:18:14;;;;;;;10.80;5.80;;;;;;;7.20;64.69;95772.09;5024870;28;20219;-71
2022/12/03 07:20:40;;;;;;;6.80;6.10;;;;;;;7.18;64.62;95776.59;5033086;28;20321;-70
2022/12/03 07:23:05;;;;;;;7.03;5.90;;;;;;;7.20;64.88;95774.69;5027805;28;20281;-69
2022/12/03 07:25:30;;;;;;;10.37;6.13;;;;;;;7.19;64.64;95773.88;5034391;28;20201;-70
2022/12/03 07:27:56;;;;;;;7.37;6.50;;;;;;;7.24;64.37;95773.50;5034720;28;20415;-71
2022/12/03 07:30:23;;;;;;;7.03;5.80;;;;;;;7.32;64.33;95780.78;5029109;28;20755;-72
2022/12/03 07:32:49;;;;;;;6.60;5.90;;;;;;;7.32;64.20;95778.19;5033029;28;20279;-69
2022/12/03 07:35:14;;;;;;;6.97;5.90;;;;;;;7.21;64.54;95771.94;5036132;28;20201;-70
2022/12/03 07:37:40;;;;;;;6.80;5.93;;;;;;;7.30;64.38;95775.69;5031121;28;20193;-69
2022/12/03 07:40:06;;;;;;;6.07;5.00;;;;;;;7.33;64.09;95785.94;5035270;28;20229;-69
2022/12/03 07:42:31;;;;;;;6.47;5.77;;;;;;;7.37;63.91;95787.34;5032632;28;20230;-68
2022/12/03 07:44:57;;;;;;;6.77;5.83;;;;;;;7.29;63.97;95769.59;5031041;28;20230;-69
2022/12/03 07:47:22;;;;;;;6.80;5.63;;;;;;;7.38;64.03;95781.19;5033310;28;20225;-69
2022/12/03 07:49:48;;;;;;;6.73;6.03;;;;;;;7.25;64.44;95780.44;5041815;28;20182;-68
2022/12/03 07:52:13;;;;;;;10.73;6.00;;;;;;;7.30;64.33;95788.78;5038697;28;20283;-69
2022/12/03 07:54:39;;;;;;;7.30;6.47;;;;;;;7.39;63.86;95789.88;5033863;28;20230;-66
2022/12/03 07:57:04;;;;;;;10.30;6.80;;;;;;;7.24;64.62;95786.59;5017951;28;20230;-67
2022/12/03 07:59:30;;;;;;;8.87;6.70;;;;;;;7.28;65.02;95788.03;5007540;28;20313;-68
2022/12/03 08:01:55;;;;;;;8.17;6.40;;;;;;;7.36;64.41;95780.47;5022478;28;20242;-71
2022/12/03 08:04:21;;;;;;;7.07;6.23;;;;;;;7.21;64.78;95782.41;5040859;28;20298;-70
2022/12/03 08:06:47;;;;;;;7.40;6.47;;;;;;;7.29;64.25;95781.84;5034795;28;20226;-68
2022/12/03 08:09:13;;;;;;;7.57;5.50;;;;;;;7.41;64.00;95786.19;5039032;28;20315;-70
2022/12/03 08:11:39;;;;;;;6.53;5.77;;;;;;;7.37;63.79;95787.34;5036918;28;20222;-68
2022/12/03 08:14:12;;;;;;;7.23;6.23;;;;;;;7.37;63.91;95792.59;5043134;28;20319;-68
2022/12/03 08:16:39;;;;;;;8.23;6.00;;;;;;;7.56;63.61;95796.47;5055749;28;20204;-70
2022/12/03 08:19:08;;;;;;;12.20;6.67;;;;;;;7.21;64.63;95792.88;5049845;28;20321;-70
2022/12/03 08:21:35;;;;;;;8.13;6.70;;;;;;;7.29;64.06;95795.75;5038207;28;20229;-70
2022/12/03 08:24:15;;;;;;;9.03;6.27;;;;;;;7.44;64.02;95799.03;5027791;28;20222;-70
2022/12/03 08:26:45;;;;;;;8.17;5.87;;;;;;;7.52;63.73;95806.34;5020499;28;20240;-70
2022/12/03 08:29:16;;;;;;;6.77;5.53;;;;;;;7.37;64.36;95805.66;5022632;28;20186;-70
2022/12/03 08:31:47;;;;;;;8.17;5.77;;;;;;;7.56;63.72;95809.56;5024205;28;20186;-70
2022/12/03 08:34:20;;;;;;;6.47;5.70;;;;;;;7.68;62.78;95808.66;5013191;28;20317;-70
2022/12/03 08:36:47;;;;;;;9.07;5.77;;;;;;;7.64;63.27;95812.44;5027344;28;20234;-70
2022/12/03 08:39:15;;;;;;;7.70;6.03;;;;;;;7.55;63.28;95815.75;5034124;28;20230;-70
2022/12/03 08:44:31;;;;;;;7.03;5.40;;;;;;;7.62;62.98;95819.59;5020164;28;20287;-70
2022/12/03 08:47:11;;;;;;;6.73;5.63;;;;;;;7.40;63.97;95815.91;5041741;28;20190;-70
2022/12/03 08:49:38;;;;;;;7.37;5.50;;;;;;;7.60;63.41;95809.22;5035294;28;20225;-70
2022/12/03 08:52:19;;;;;;;7.30;6.30;;;;;;;7.70;63.06;95819.84;5023601;28;20237;-70
2022/12/03 08:54:52;;;;;;;6.27;5.67;;;;;;;7.70;62.90;95822.47;5022378;28;20232;-70
2022/12/03 08:57:26;;;;;;;7.43;6.60;;;;;;;7.74;62.62;95821.28;5018017;28;20226;-71
2022/12/03 09:00:14;;;;;;;8.03;6.80;;;;;;;7.78;62.51;95811.38;5024708;28;20233;-71
2022/12/03 09:02:46;;;;;;;6.57;5.87;;;;;;;7.84;62.71;95817.03;5017468;28;21056;-71
2022/12/03 09:05:19;;;;;;;6.43;5.43;;;;;;;7.88;62.38;95810.59;5019419;28;20333;-70
2022/12/03 09:07:45;;;;;;;8.47;6.17;;;;;;;7.90;62.47;95806.06;5022408;28;20178;-71
2022/12/03 09:10:10;;;;;;;6.40;5.70;;;;;;;7.93;62.40;95811.06;5023087;28;20237;-71
2022/12/03 09:12:36;;;;;;;7.67;6.20;;;;;;;8.01;62.32;95807.06;5019338;28;20264;-71
2022/12/03 09:15:01;;;;;;;6.83;6.13;;;;;;;8.02;62.30;95808.72;5024170;28;20210;-71
2022/12/03 09:17:27;;;;;;;6.57;5.87;;;;;;;7.98;62.13;95802.06;5022530;28;20225;-70
2022/12/03 09:19:53;;;;;;;6.30;5.70;;;;;;;8.03;61.99;95811.22;5043417;28;20228;-70
2022/12/03 09:22:18;;;;;;;6.07;5.47;;;;;;;8.00;61.97;95803.59;5037973;28;20233;-70
2022/12/03 09:24:44;;;;;;;6.23;5.63;;;;;;;8.09;61.79;95805.50;5040526;28;20248;-70
2022/12/03 09:27:09;;;;;;;8.20;6.50;;;;;;;8.15;61.69;95798.97;5038726;28;20232;-71
2022/12/03 09:29:35;;;;;;;8.03;6.30;;;;;;;8.15;61.57;95801.56;5029972;28;20214;-70
2022/12/03 09:32:00;;;;;;;9.10;7.07;;;;;;;8.08;61.79;95806.47;5020627;28;20183;-70
2022/12/03 09:34:25;;;;;;;8.40;5.90;;;;;;;8.18;61.42;95804.00;5037128;28;20221;-70
2022/12/03 09:36:51;;;;;;;6.10;5.50;;;;;;;8.02;61.83;95800.84;5045557;28;20225;-70
2022/12/03 09:39:17;;;;;;;7.07;6.23;;;;;;;7.96;62.02;95804.78;5036947;28;20222;-70
2022/12/03 09:41:43;;;;;;;6.93;6.23;;;;;;;8.03;61.90;95799.91;5039748;28;20222;-71
2022/12/03 09:44:09;;;;;;;9.30;6.60;;;;;;;8.21;61.17;95803.75;5033525;28;20221;-71
2022/12/03 09:46:37;;;;;;;7.77;6.90;;;;;;;8.20;61.13;95793.38;5033868;28;20194;-73
2022/12/03 09:49:06;;;;;;;6.97;6.27;;;;;;;8.29;61.13;95796.13;5036117;28;20225;-70
2022/12/03 09:51:35;;;;;;;7.43;6.60;;;;;;;8.34;60.80;95795.75;5045180;28;20296;-71
2022/12/03 09:54:03;;;;;;;7.57;6.20;;;;;;;8.36;60.68;95794.69;5037083;28;20229;-71
2022/12/03 09:56:29;;;;;;;7.37;6.50;;;;;;;8.29;61.08;95785.66;5046322;28;20244;-70
2022/12/03 09:58:54;;;;;;;7.47;6.23;;;;;;;8.31;60.83;95794.22;5048711;28;20190;-70
2022/12/03 10:01:20;;;;;;;8.53;5.90;;;;;;;8.34;60.78;95780.88;5042137;28;20281;-70
2022/12/03 10:03:49;;;;;;;7.63;6.70;;;;;;;8.31;60.91;95778.50;5039390;28;20225;-71
2022/12/03 10:06:20;;;;;;;8.00;6.17;;;;;;;8.38;60.82;95778.84;5043281;28;20232;-70
2022/12/03 10:08:48;;;;;;;7.80;7.00;;;;;;;8.38;61.02;95771.81;5047412;28;20231;-72
2022/12/03 10:11:17;;;;;;;7.27;6.53;;;;;;;8.49;60.67;95778.88;5040384;28;20189;-70
2022/12/03 10:13:43;;;;;;;7.23;6.20;;;;;;;8.50;60.36;95772.69;5045384;28;20189;-69
2022/12/03 10:16:15;;;;;;;13.67;7.20;;;;;;;8.57;60.49;95768.63;5046133;28;20247;-71
2022/12/03 10:18:47;;;;;;;7.77;6.97;;;;;;;8.66;60.10;95767.09;5041829;28;20217;-71
2022/12/03 10:21:17;;;;;;;8.13;6.77;;;;;;;8.49;60.54;95767.56;5037105;28;20249;-71
2022/12/03 10:23:44;;;;;;;7.27;6.57;;;;;;;8.66;60.12;95763.59;5039873;28;20229;-70
2022/12/03 10:26:10;;;;;;;6.67;5.87;;;;;;;8.73;59.94;95754.31;5041659;28;20182;-70
2022/12/03 10:28:38;;;;;;;6.83;5.97;;;;;;;8.77;59.41;95763.59;5048744;28;20272;-70
2022/12/03 10:31:06;;;;;;;7.07;6.37;;;;;;;8.71;59.77;95762.28;5042904;28;20602;-69
2022/12/03 10:33:38;;;;;;;6.80;6.20;;;;;;;8.70;59.81;95767.66;5046143;28;20223;-70
2022/12/03 10:36:13;;;;;;;8.23;6.17;;;;;;;8.63;60.14;95759.44;5039028;28;20358;-69
2022/12/03 10:38:39;;;;;;;7.70;6.07;;;;;;;8.61;59.90;95758.75;5045317;28;20298;-71
2022/12/03 10:41:23;;;;;;;6.43;5.83;;;;;;;8.64;59.68;95755.06;5040730;28;20263;-67
2022/12/03 10:43:48;;;;;;;7.30;6.60;;;;;;;8.62;60.05;95757.78;5039951;28;20682;-70
2022/12/03 10:46:18;;;;;;;7.70;6.63;;;;;;;8.73;60.17;95756.94;5042499;28;20324;-70
2022/12/03 10:48:43;;;;;;;8.23;7.03;;;;;;;8.71;60.29;95759.66;5038197;28;20443;-70
2022/12/03 10:51:20;;;;;;;8.03;7.03;;;;;;;8.68;60.50;95762.53;5046975;28;20300;-70
2022/12/03 10:53:46;;;;;;;7.90;6.80;;;;;;;8.71;59.96;95754.41;5040375;28;20231;-70
2022/12/03 10:56:18;;;;;;;7.93;7.10;;;;;;;8.55;60.30;95748.72;5034426;28;20340;-70
2022/12/03 10:58:44;;;;;;;11.67;7.17;;;;;;;8.54;60.47;95749.69;5039956;28;20190;-70
2022/12/03 11:01:16;;;;;;;7.97;7.17;;;;;;;8.49;60.79;95741.34;5038321;28;20217;-70
2022/12/03 11:03:41;;;;;;;10.27;7.47;;;;;;;8.46;60.87;95744.22;5036918;28;20218;-70
2022/12/03 11:06:19;;;;;;;7.63;6.83;;;;;;;8.54;60.66;95739.19;5033634;28;20221;-70
2022/12/03 11:08:47;;;;;;;8.33;6.97;;;;;;;8.59;60.54;95742.28;5045877;28;20267;-70
2022/12/03 11:11:17;;;;;;;10.50;7.10;;;;;;;8.67;60.30;95741.69;5038449;28;20201;-70
2022/12/03 11:13:45;;;;;;;8.73;7.90;;;;;;;8.72;60.13;95740.38;5041674;28;20182;-71
2022/12/03 11:16:12;;;;;;;7.97;7.27;;;;;;;8.79;59.60;95741.56;5037163;28;20410;-71
2022/12/03 11:18:37;;;;;;;7.63;6.93;;;;;;;8.75;60.44;95740.13;5039187;28;20248;-71
2022/12/03 11:21:13;;;;;;;8.67;7.50;;;;;;;8.74;59.65;95742.84;5031152;28;20242;-71
2022/12/03 11:23:45;;;;;;;8.43;7.63;;;;;;;8.77;59.85;95745.25;5020591;28;20313;-71
2022/12/03 11:26:25;;;;;;;7.90;7.10;;;;;;;8.78;59.71;95734.63;5024051;28;20183;-70
2022/12/03 11:28:52;;;;;;;9.87;7.17;;;;;;;8.83;59.53;95742.94;5021608;28;20197;-70
2022/12/03 11:31:38;;;;;;;8.70;7.87;;;;;;;8.87;59.74;95734.84;5007290;28;20238;-70
2022/12/03 11:34:22;;;;;;;9.73;7.73;;;;;;;8.69;60.63;95734.53;5001025;28;20282;-70
2022/12/03 11:37:09;;;;;;;8.47;7.10;;;;;;;8.72;60.44;95743.00;5023258;28;20237;-70
2022/12/03 11:39:44;;;;;;;9.53;8.50;;;;;;;8.69;60.63;95734.53;5022794;28;20225;-69
2022/12/03 11:42:24;;;;;;;9.50;8.60;;;;;;;8.69;60.81;95732.75;5018108;28;20253;-69
2022/12/03 11:45:05;;;;;;;11.50;8.57;;;;;;;8.76;60.55;95726.03;5038132;28;20226;-70
2022/12/03 11:47:58;;;;;;;10.90;8.70;;;;;;;8.68;60.40;95722.38;5045084;28;20229;-69
2022/12/03 11:50:42;;;;;;;9.60;8.43;;;;;;;8.67;60.85;95725.97;5036006;28;20305;-70
2022/12/03 11:53:12;;;;;;;9.37;8.43;;;;;;;8.73;60.30;95714.97;5040041;28;20182;-70
2022/12/03 11:55:43;;;;;;;9.23;8.33;;;;;;;8.64;61.01;95716.56;5050843;28;20197;-70
2022/12/03 11:58:28;;;;;;;10.67;8.60;;;;;;;8.73;60.70;95714.97;5044749;28;20213;-71
2022/12/03 12:00:56;;;;;;;9.47;8.57;;;;;;;8.75;60.73;95713.91;5021330;28;20218;-70
2022/12/03 12:03:27;;;;;;;9.97;8.97;;;;;;;8.49;61.25;95708.09;5015839;28;20226;-70